sensor_id;sensor_type;location;lat;lon;timestamp;P1;durP1;ratioP1;P2;durP2;ratioP2
29686;SDS011;16599;47.078;15.536;2022-10-15T00:00:54;107.53;;;54.42;;
29686;SDS011;16599;47.078;15.536;2022-10-15T00:03:38;129.45;;;57.78;;
29686;SDS011;16599;47.078;15.536;2022-10-15T00:06:16;122.85;;;58.05;;
29686;SDS011;16599;47.078;15.536;2022-10-15T00:08:45;124.43;;;57.75;;
29686;SDS011;16599;47.078;15.536;2022-10-15T00:11:17;132.80;;;61.28;;
29686;SDS011;16599;47.078;15.536;2022-10-15T00:13:45;141.90;;;63.15;;
29686;SDS011;16599;47.078;15.536;2022-10-15T00:16:14;141.52;;;63.17;;
29686;SDS011;16599;47.078;15.536;2022-10-15T00:18:43;130.27;;;61.88;;
29686;SDS011;16599;47.078;15.536;2022-10-15T00:21:12;149.10;;;63.83;;
29686;SDS011;16599;47.078;15.536;2022-10-15T00:23:40;151.85;;;68.85;;
29686;SDS011;16599;47.078;15.536;2022-10-15T00:26:09;163.73;;;70.88;;
29686;SDS011;16599;47.078;15.536;2022-10-15T00:28:41;162.05;;;72.63;;
29686;SDS011;16599;47.078;15.536;2022-10-15T00:31:10;172.20;;;75.25;;
29686;SDS011;16599;47.078;15.536;2022-10-15T00:33:39;167.17;;;73.13;;
29686;SDS011;16599;47.078;15.536;2022-10-15T00:36:09;142.93;;;66.28;;
29686;SDS011;16599;47.078;15.536;2022-10-15T00:38:38;147.18;;;64.45;;
29686;SDS011;16599;47.078;15.536;2022-10-15T00:41:07;148.60;;;66.05;;
29686;SDS011;16599;47.078;15.536;2022-10-15T00:49:09;147.85;;;64.88;;
29686;SDS011;16599;47.078;15.536;2022-10-15T00:51:39;138.00;;;63.42;;
29686;SDS011;16599;47.078;15.536;2022-10-15T00:54:08;128.52;;;60.30;;
29686;SDS011;16599;47.078;15.536;2022-10-15T00:56:37;128.25;;;61.28;;
29686;SDS011;16599;47.078;15.536;2022-10-15T00:59:06;134.45;;;62.17;;
29686;SDS011;16599;47.078;15.536;2022-10-15T01:01:34;128.43;;;62.55;;
29686;SDS011;16599;47.078;15.536;2022-10-15T01:04:01;134.80;;;61.58;;
29686;SDS011;16599;47.078;15.536;2022-10-15T01:06:30;140.23;;;64.88;;
29686;SDS011;16599;47.078;15.536;2022-10-15T01:08:58;157.32;;;65.90;;
29686;SDS011;16599;47.078;15.536;2022-10-15T01:16:57;135.93;;;62.08;;
29686;SDS011;16599;47.078;15.536;2022-10-15T01:28:37;129.50;;;60.47;;
29686;SDS011;16599;47.078;15.536;2022-10-15T01:34:22;139.98;;;62.63;;
29686;SDS011;16599;47.078;15.536;2022-10-15T01:37:08;142.40;;;64.70;;
29686;SDS011;16599;47.078;15.536;2022-10-15T01:39:51;140.30;;;63.10;;
29686;SDS011;16599;47.078;15.536;2022-10-15T01:42:33;138.55;;;62.28;;
29686;SDS011;16599;47.078;15.536;2022-10-15T01:45:12;139.43;;;61.95;;
29686;SDS011;16599;47.078;15.536;2022-10-15T01:47:47;136.00;;;63.28;;
29686;SDS011;16599;47.078;15.536;2022-10-15T01:50:18;126.57;;;62.20;;
29686;SDS011;16599;47.078;15.536;2022-10-15T01:52:48;145.05;;;62.97;;
29686;SDS011;16599;47.078;15.536;2022-10-15T01:55:17;142.77;;;64.47;;
29686;SDS011;16599;47.078;15.536;2022-10-15T01:57:46;133.55;;;65.50;;
29686;SDS011;16599;47.078;15.536;2022-10-15T02:00:14;126.55;;;61.25;;
29686;SDS011;16599;47.078;15.536;2022-10-15T02:02:41;126.97;;;61.42;;
29686;SDS011;16599;47.078;15.536;2022-10-15T02:05:10;133.70;;;60.90;;
29686;SDS011;16599;47.078;15.536;2022-10-15T02:17:04;129.27;;;60.50;;
29686;SDS011;16599;47.078;15.536;2022-10-15T02:19:13;118.70;;;56.95;;
29686;SDS011;16599;47.078;15.536;2022-10-15T02:24:53;144.43;;;63.45;;
29686;SDS011;16599;47.078;15.536;2022-10-15T02:27:29;146.98;;;63.95;;
29686;SDS011;16599;47.078;15.536;2022-10-15T02:29:58;145.48;;;64.03;;
29686;SDS011;16599;47.078;15.536;2022-10-15T02:32:28;144.18;;;64.18;;
29686;SDS011;16599;47.078;15.536;2022-10-15T02:34:57;145.13;;;63.70;;
29686;SDS011;16599;47.078;15.536;2022-10-15T02:37:26;157.18;;;67.97;;
29686;SDS011;16599;47.078;15.536;2022-10-15T02:39:54;157.20;;;69.45;;
29686;SDS011;16599;47.078;15.536;2022-10-15T02:42:21;157.38;;;69.18;;
29686;SDS011;16599;47.078;15.536;2022-10-15T02:44:49;157.65;;;69.78;;
29686;SDS011;16599;47.078;15.536;2022-10-15T02:47:16;155.95;;;67.28;;
29686;SDS011;16599;47.078;15.536;2022-10-15T02:49:42;154.43;;;68.38;;
29686;SDS011;16599;47.078;15.536;2022-10-15T02:52:10;175.77;;;71.85;;
29686;SDS011;16599;47.078;15.536;2022-10-15T02:54:36;165.48;;;73.22;;
29686;SDS011;16599;47.078;15.536;2022-10-15T02:57:03;177.00;;;72.75;;
29686;SDS011;16599;47.078;15.536;2022-10-15T02:59:30;165.82;;;69.35;;
29686;SDS011;16599;47.078;15.536;2022-10-15T03:01:57;160.10;;;69.93;;
29686;SDS011;16599;47.078;15.536;2022-10-15T03:04:24;154.68;;;68.53;;
29686;SDS011;16599;47.078;15.536;2022-10-15T03:06:50;141.25;;;65.85;;
29686;SDS011;16599;47.078;15.536;2022-10-15T03:09:18;140.95;;;63.95;;
29686;SDS011;16599;47.078;15.536;2022-10-15T03:11:45;144.18;;;65.03;;
29686;SDS011;16599;47.078;15.536;2022-10-15T03:14:12;148.93;;;64.18;;
29686;SDS011;16599;47.078;15.536;2022-10-15T03:16:38;129.30;;;62.22;;
29686;SDS011;16599;47.078;15.536;2022-10-15T03:19:05;136.73;;;62.60;;
29686;SDS011;16599;47.078;15.536;2022-10-15T03:21:32;145.15;;;63.35;;
29686;SDS011;16599;47.078;15.536;2022-10-15T03:23:59;130.10;;;61.97;;
29686;SDS011;16599;47.078;15.536;2022-10-15T03:26:26;131.35;;;61.17;;
29686;SDS011;16599;47.078;15.536;2022-10-15T03:28:53;133.63;;;61.40;;
29686;SDS011;16599;47.078;15.536;2022-10-15T03:31:19;123.88;;;59.58;;
29686;SDS011;16599;47.078;15.536;2022-10-15T03:33:46;125.65;;;61.42;;
29686;SDS011;16599;47.078;15.536;2022-10-15T03:36:13;121.35;;;59.03;;
29686;SDS011;16599;47.078;15.536;2022-10-15T03:38:40;144.02;;;62.20;;
29686;SDS011;16599;47.078;15.536;2022-10-15T03:41:07;160.95;;;69.38;;
29686;SDS011;16599;47.078;15.536;2022-10-15T03:43:34;169.35;;;72.18;;
29686;SDS011;16599;47.078;15.536;2022-10-15T03:46:05;177.70;;;73.80;;
29686;SDS011;16599;47.078;15.536;2022-10-15T03:48:32;163.68;;;70.43;;
29686;SDS011;16599;47.078;15.536;2022-10-15T03:50:59;179.65;;;75.55;;
29686;SDS011;16599;47.078;15.536;2022-10-15T03:53:25;172.93;;;71.32;;
29686;SDS011;16599;47.078;15.536;2022-10-15T03:55:52;158.48;;;67.38;;
29686;SDS011;16599;47.078;15.536;2022-10-15T03:58:19;166.75;;;68.68;;
29686;SDS011;16599;47.078;15.536;2022-10-15T04:00:46;180.43;;;71.38;;
29686;SDS011;16599;47.078;15.536;2022-10-15T04:03:13;171.07;;;72.78;;
29686;SDS011;16599;47.078;15.536;2022-10-15T04:05:40;187.25;;;71.22;;
29686;SDS011;16599;47.078;15.536;2022-10-15T04:08:07;173.05;;;72.22;;
29686;SDS011;16599;47.078;15.536;2022-10-15T04:10:34;173.88;;;72.40;;
29686;SDS011;16599;47.078;15.536;2022-10-15T04:13:00;157.77;;;67.43;;
29686;SDS011;16599;47.078;15.536;2022-10-15T04:15:27;166.48;;;69.72;;
29686;SDS011;16599;47.078;15.536;2022-10-15T04:17:54;150.73;;;66.97;;
29686;SDS011;16599;47.078;15.536;2022-10-15T04:20:21;158.73;;;70.43;;
29686;SDS011;16599;47.078;15.536;2022-10-15T04:22:48;179.90;;;71.65;;
29686;SDS011;16599;47.078;15.536;2022-10-15T04:25:15;172.77;;;70.25;;
29686;SDS011;16599;47.078;15.536;2022-10-15T04:27:42;140.50;;;64.60;;
29686;SDS011;16599;47.078;15.536;2022-10-15T04:30:09;153.02;;;68.93;;
29686;SDS011;16599;47.078;15.536;2022-10-15T04:32:36;154.98;;;68.72;;
29686;SDS011;16599;47.078;15.536;2022-10-15T04:35:03;155.95;;;68.78;;
29686;SDS011;16599;47.078;15.536;2022-10-15T04:37:34;168.18;;;73.47;;
29686;SDS011;16599;47.078;15.536;2022-10-15T04:40:01;152.55;;;66.00;;
29686;SDS011;16599;47.078;15.536;2022-10-15T04:42:30;144.00;;;64.25;;
29686;SDS011;16599;47.078;15.536;2022-10-15T04:44:57;146.85;;;67.28;;
29686;SDS011;16599;47.078;15.536;2022-10-15T04:47:23;151.55;;;65.93;;
29686;SDS011;16599;47.078;15.536;2022-10-15T04:49:51;144.35;;;65.85;;
29686;SDS011;16599;47.078;15.536;2022-10-15T04:52:18;167.38;;;70.65;;
29686;SDS011;16599;47.078;15.536;2022-10-15T04:54:45;164.75;;;68.72;;
29686;SDS011;16599;47.078;15.536;2022-10-15T04:57:11;163.13;;;65.32;;
29686;SDS011;16599;47.078;15.536;2022-10-15T04:59:38;174.95;;;69.97;;
29686;SDS011;16599;47.078;15.536;2022-10-15T05:02:05;151.93;;;64.35;;
29686;SDS011;16599;47.078;15.536;2022-10-15T05:04:32;143.48;;;63.25;;
29686;SDS011;16599;47.078;15.536;2022-10-15T05:06:59;166.20;;;68.18;;
29686;SDS011;16599;47.078;15.536;2022-10-15T05:09:26;172.18;;;70.32;;
29686;SDS011;16599;47.078;15.536;2022-10-15T05:11:53;163.32;;;67.65;;
29686;SDS011;16599;47.078;15.536;2022-10-15T05:14:21;196.23;;;73.70;;
29686;SDS011;16599;47.078;15.536;2022-10-15T05:16:48;253.45;;;81.40;;
29686;SDS011;16599;47.078;15.536;2022-10-15T05:19:15;263.10;;;84.20;;
29686;SDS011;16599;47.078;15.536;2022-10-15T05:21:42;278.73;;;85.07;;
29686;SDS011;16599;47.078;15.536;2022-10-15T05:24:09;253.75;;;85.28;;
29686;SDS011;16599;47.078;15.536;2022-10-15T05:26:36;252.30;;;82.85;;
29686;SDS011;16599;47.078;15.536;2022-10-15T05:29:03;267.38;;;83.88;;
29686;SDS011;16599;47.078;15.536;2022-10-15T05:31:31;252.70;;;85.38;;
29686;SDS011;16599;47.078;15.536;2022-10-15T05:33:58;285.60;;;85.95;;
29686;SDS011;16599;47.078;15.536;2022-10-15T05:36:30;271.58;;;86.22;;
29686;SDS011;16599;47.078;15.536;2022-10-15T05:38:58;296.35;;;90.15;;
29686;SDS011;16599;47.078;15.536;2022-10-15T05:41:27;279.33;;;89.97;;
29686;SDS011;16599;47.078;15.536;2022-10-15T05:43:55;317.27;;;101.43;;
29686;SDS011;16599;47.078;15.536;2022-10-15T05:46:23;284.83;;;95.32;;
29686;SDS011;16599;47.078;15.536;2022-10-15T05:48:51;294.80;;;94.35;;
29686;SDS011;16599;47.078;15.536;2022-10-15T05:51:20;278.73;;;87.13;;
29686;SDS011;16599;47.078;15.536;2022-10-15T05:53:47;268.38;;;90.97;;
29686;SDS011;16599;47.078;15.536;2022-10-15T05:56:17;253.30;;;85.85;;
29686;SDS011;16599;47.078;15.536;2022-10-15T05:58:44;250.45;;;86.35;;
29686;SDS011;16599;47.078;15.536;2022-10-15T06:01:11;258.83;;;87.65;;
29686;SDS011;16599;47.078;15.536;2022-10-15T06:03:39;239.25;;;81.57;;
29686;SDS011;16599;47.078;15.536;2022-10-15T06:06:16;238.38;;;83.47;;
29686;SDS011;16599;47.078;15.536;2022-10-15T06:08:47;238.23;;;83.10;;
29686;SDS011;16599;47.078;15.536;2022-10-15T06:11:15;217.32;;;82.65;;
29686;SDS011;16599;47.078;15.536;2022-10-15T06:13:43;227.35;;;80.10;;
29686;SDS011;16599;47.078;15.536;2022-10-15T06:16:10;232.25;;;85.50;;
29686;SDS011;16599;47.078;15.536;2022-10-15T06:18:43;231.13;;;87.05;;
29686;SDS011;16599;47.078;15.536;2022-10-15T06:21:10;222.52;;;85.05;;
29686;SDS011;16599;47.078;15.536;2022-10-15T06:23:37;230.27;;;83.80;;
29686;SDS011;16599;47.078;15.536;2022-10-15T06:26:05;227.25;;;83.13;;
29686;SDS011;16599;47.078;15.536;2022-10-15T06:28:34;234.18;;;88.80;;
29686;SDS011;16599;47.078;15.536;2022-10-15T06:31:02;245.27;;;90.78;;
29686;SDS011;16599;47.078;15.536;2022-10-15T06:33:30;233.20;;;89.32;;
29686;SDS011;16599;47.078;15.536;2022-10-15T06:36:02;243.05;;;90.70;;
29686;SDS011;16599;47.078;15.536;2022-10-15T06:38:30;243.77;;;92.63;;
29686;SDS011;16599;47.078;15.536;2022-10-15T06:40:57;227.20;;;86.38;;
29686;SDS011;16599;47.078;15.536;2022-10-15T06:43:24;211.77;;;83.55;;
29686;SDS011;16599;47.078;15.536;2022-10-15T06:45:57;208.15;;;82.03;;
29686;SDS011;16599;47.078;15.536;2022-10-15T06:48:27;217.87;;;83.63;;
29686;SDS011;16599;47.078;15.536;2022-10-15T06:50:56;224.13;;;86.20;;
29686;SDS011;16599;47.078;15.536;2022-10-15T07:44:11;302.90;;;115.18;;
29686;SDS011;16599;47.078;15.536;2022-10-15T07:46:39;296.90;;;113.82;;
29686;SDS011;16599;47.078;15.536;2022-10-15T07:49:09;255.83;;;99.43;;
29686;SDS011;16599;47.078;15.536;2022-10-15T07:51:36;251.40;;;98.05;;
29686;SDS011;16599;47.078;15.536;2022-10-15T07:54:03;256.38;;;101.28;;
29686;SDS011;16599;47.078;15.536;2022-10-15T07:56:30;265.40;;;104.65;;
29686;SDS011;16599;47.078;15.536;2022-10-15T07:59:00;250.80;;;102.10;;
29686;SDS011;16599;47.078;15.536;2022-10-15T08:01:27;249.23;;;98.80;;
29686;SDS011;16599;47.078;15.536;2022-10-15T08:03:53;268.13;;;104.45;;
29686;SDS011;16599;47.078;15.536;2022-10-15T08:06:20;260.77;;;103.25;;
29686;SDS011;16599;47.078;15.536;2022-10-15T08:08:47;263.02;;;104.75;;
29686;SDS011;16599;47.078;15.536;2022-10-15T08:11:14;271.45;;;105.65;;
29686;SDS011;16599;47.078;15.536;2022-10-15T08:13:42;254.60;;;105.35;;
29686;SDS011;16599;47.078;15.536;2022-10-15T08:16:10;265.42;;;107.70;;
29686;SDS011;16599;47.078;15.536;2022-10-15T08:18:38;263.17;;;104.20;;
29686;SDS011;16599;47.078;15.536;2022-10-15T08:21:05;259.20;;;105.75;;
29686;SDS011;16599;47.078;15.536;2022-10-15T08:23:33;274.45;;;110.47;;
29686;SDS011;16599;47.078;15.536;2022-10-15T08:26:01;253.15;;;103.88;;
29686;SDS011;16599;47.078;15.536;2022-10-15T08:28:29;249.38;;;103.10;;
29686;SDS011;16599;47.078;15.536;2022-10-15T08:30:57;250.32;;;103.28;;
29686;SDS011;16599;47.078;15.536;2022-10-15T08:33:30;255.15;;;105.93;;
29686;SDS011;16599;47.078;15.536;2022-10-15T08:35:58;259.85;;;109.88;;
29686;SDS011;16599;47.078;15.536;2022-10-15T08:38:25;249.27;;;106.00;;
29686;SDS011;16599;47.078;15.536;2022-10-15T08:40:55;226.52;;;99.20;;
29686;SDS011;16599;47.078;15.536;2022-10-15T08:43:29;232.93;;;100.15;;
29686;SDS011;16599;47.078;15.536;2022-10-15T08:46:10;239.48;;;99.40;;
29686;SDS011;16599;47.078;15.536;2022-10-15T08:48:47;231.40;;;97.80;;
29686;SDS011;16599;47.078;15.536;2022-10-15T08:53:47;212.98;;;91.82;;
29686;SDS011;16599;47.078;15.536;2022-10-15T08:56:23;220.23;;;95.97;;
29686;SDS011;16599;47.078;15.536;2022-10-15T09:04:28;204.13;;;94.65;;
29686;SDS011;16599;47.078;15.536;2022-10-15T09:09:55;210.10;;;92.60;;
29686;SDS011;16599;47.078;15.536;2022-10-15T09:12:49;204.02;;;94.68;;
29686;SDS011;16599;47.078;15.536;2022-10-15T09:15:26;200.50;;;91.55;;
29686;SDS011;16599;47.078;15.536;2022-10-15T09:17:58;208.32;;;94.97;;
29686;SDS011;16599;47.078;15.536;2022-10-15T09:20:26;207.85;;;91.45;;
29686;SDS011;16599;47.078;15.536;2022-10-15T09:22:58;197.30;;;93.55;;
29686;SDS011;16599;47.078;15.536;2022-10-15T09:25:28;189.00;;;89.85;;
29686;SDS011;16599;47.078;15.536;2022-10-15T09:28:05;195.38;;;90.90;;
29686;SDS011;16599;47.078;15.536;2022-10-15T09:35:42;151.52;;;77.13;;
29686;SDS011;16599;47.078;15.536;2022-10-15T09:43:43;146.40;;;75.78;;
29686;SDS011;16599;47.078;15.536;2022-10-15T09:46:13;150.50;;;76.93;;
29686;SDS011;16599;47.078;15.536;2022-10-15T09:48:47;151.35;;;80.00;;
29686;SDS011;16599;47.078;15.536;2022-10-15T09:51:34;149.80;;;78.13;;
29686;SDS011;16599;47.078;15.536;2022-10-15T09:54:20;149.73;;;76.68;;
29686;SDS011;16599;47.078;15.536;2022-10-15T09:56:55;156.98;;;78.43;;
29686;SDS011;16599;47.078;15.536;2022-10-15T09:59:23;141.07;;;72.20;;
29686;SDS011;16599;47.078;15.536;2022-10-15T10:02:01;149.98;;;74.18;;
29686;SDS011;16599;47.078;15.536;2022-10-15T10:04:48;142.00;;;74.82;;
29686;SDS011;16599;47.078;15.536;2022-10-15T10:10:01;141.63;;;75.60;;
29686;SDS011;16599;47.078;15.536;2022-10-15T10:12:49;134.93;;;72.57;;
29686;SDS011;16599;47.078;15.536;2022-10-15T10:15:33;144.38;;;73.20;;
29686;SDS011;16599;47.078;15.536;2022-10-15T10:18:01;127.07;;;71.05;;
29686;SDS011;16599;47.078;15.536;2022-10-15T10:20:32;139.82;;;73.45;;
29686;SDS011;16599;47.078;15.536;2022-10-15T10:23:21;132.20;;;73.50;;
29686;SDS011;16599;47.078;15.536;2022-10-15T10:25:48;129.23;;;68.80;;
29686;SDS011;16599;47.078;15.536;2022-10-15T10:28:49;122.35;;;66.78;;
29686;SDS011;16599;47.078;15.536;2022-10-15T10:31:14;129.48;;;70.20;;
29686;SDS011;16599;47.078;15.536;2022-10-15T10:36:32;116.05;;;65.78;;
29686;SDS011;16599;47.078;15.536;2022-10-15T10:41:46;120.35;;;67.43;;
29686;SDS011;16599;47.078;15.536;2022-10-15T10:44:24;115.03;;;64.60;;
29686;SDS011;16599;47.078;15.536;2022-10-15T10:49:44;114.65;;;60.28;;
29686;SDS011;16599;47.078;15.536;2022-10-15T10:52:35;108.05;;;61.78;;
29686;SDS011;16599;47.078;15.536;2022-10-15T10:55:22;104.38;;;60.42;;
29686;SDS011;16599;47.078;15.536;2022-10-15T10:57:56;104.30;;;62.13;;
29686;SDS011;16599;47.078;15.536;2022-10-15T11:03:30;105.70;;;64.75;;
29686;SDS011;16599;47.078;15.536;2022-10-15T11:06:12;108.97;;;60.28;;
29686;SDS011;16599;47.078;15.536;2022-10-15T11:11:43;110.35;;;64.07;;
29686;SDS011;16599;47.078;15.536;2022-10-15T11:14:25;102.28;;;60.17;;
29686;SDS011;16599;47.078;15.536;2022-10-15T11:19:46;100.20;;;55.83;;
29686;SDS011;16599;47.078;15.536;2022-10-15T11:31:12;91.28;;;54.88;;
29686;SDS011;16599;47.078;15.536;2022-10-15T11:33:49;92.22;;;56.08;;
29686;SDS011;16599;47.078;15.536;2022-10-15T11:41:23;97.05;;;56.78;;
29686;SDS011;16599;47.078;15.536;2022-10-15T11:44:18;98.72;;;56.95;;
29686;SDS011;16599;47.078;15.536;2022-10-15T11:53:03;95.28;;;57.63;;
29686;SDS011;16599;47.078;15.536;2022-10-15T11:58:37;102.68;;;59.35;;
29686;SDS011;16599;47.078;15.536;2022-10-15T12:01:23;91.78;;;56.85;;
29686;SDS011;16599;47.078;15.536;2022-10-15T12:04:09;91.22;;;56.30;;
29686;SDS011;16599;47.078;15.536;2022-10-15T12:06:58;95.50;;;54.20;;
29686;SDS011;16599;47.078;15.536;2022-10-15T12:09:29;87.65;;;55.55;;
29686;SDS011;16599;47.078;15.536;2022-10-15T12:14:34;89.20;;;53.10;;
29686;SDS011;16599;47.078;15.536;2022-10-15T12:17:23;94.38;;;54.35;;
29686;SDS011;16599;47.078;15.536;2022-10-15T12:20:14;85.30;;;52.72;;
29686;SDS011;16599;47.078;15.536;2022-10-15T12:28:02;84.38;;;52.63;;
29686;SDS011;16599;47.078;15.536;2022-10-15T12:30:34;83.20;;;55.00;;
29686;SDS011;16599;47.078;15.536;2022-10-15T12:33:03;81.68;;;52.25;;
29686;SDS011;16599;47.078;15.536;2022-10-15T12:35:55;82.72;;;52.35;;
29686;SDS011;16599;47.078;15.536;2022-10-15T12:38:26;78.13;;;50.85;;
29686;SDS011;16599;47.078;15.536;2022-10-15T12:40:59;77.03;;;50.00;;
29686;SDS011;16599;47.078;15.536;2022-10-15T12:44:23;83.80;;;51.00;;
29686;SDS011;16599;47.078;15.536;2022-10-15T12:46:35;79.47;;;50.90;;
29686;SDS011;16599;47.078;15.536;2022-10-15T12:51:53;78.72;;;50.15;;
29686;SDS011;16599;47.078;15.536;2022-10-15T12:54:32;78.60;;;50.15;;
29686;SDS011;16599;47.078;15.536;2022-10-15T12:57:00;82.25;;;50.58;;
29686;SDS011;16599;47.078;15.536;2022-10-15T12:59:52;77.88;;;49.67;;
29686;SDS011;16599;47.078;15.536;2022-10-15T13:02:38;79.20;;;50.45;;
29686;SDS011;16599;47.078;15.536;2022-10-15T13:05:22;84.03;;;51.30;;
29686;SDS011;16599;47.078;15.536;2022-10-15T13:07:51;81.55;;;49.55;;
29686;SDS011;16599;47.078;15.536;2022-10-15T13:10:22;85.22;;;51.47;;
29686;SDS011;16599;47.078;15.536;2022-10-15T13:12:54;80.15;;;48.97;;
29686;SDS011;16599;47.078;15.536;2022-10-15T13:15:27;69.97;;;44.65;;
29686;SDS011;16599;47.078;15.536;2022-10-15T13:17:56;71.03;;;44.63;;
29686;SDS011;16599;47.078;15.536;2022-10-15T13:20:59;71.57;;;46.72;;
29686;SDS011;16599;47.078;15.536;2022-10-15T13:23:22;71.10;;;45.78;;
29686;SDS011;16599;47.078;15.536;2022-10-15T13:26:09;71.18;;;46.40;;
29686;SDS011;16599;47.078;15.536;2022-10-15T13:28:38;75.82;;;47.42;;
29686;SDS011;16599;47.078;15.536;2022-10-15T13:31:23;73.28;;;45.53;;
29686;SDS011;16599;47.078;15.536;2022-10-15T13:34:10;75.72;;;47.90;;
29686;SDS011;16599;47.078;15.536;2022-10-15T13:36:44;75.38;;;47.25;;
29686;SDS011;16599;47.078;15.536;2022-10-15T13:39:26;77.53;;;47.97;;
29686;SDS011;16599;47.078;15.536;2022-10-15T13:42:17;75.25;;;47.03;;
29686;SDS011;16599;47.078;15.536;2022-10-15T13:47:48;68.75;;;47.45;;
29686;SDS011;16599;47.078;15.536;2022-10-15T13:50:21;70.03;;;46.85;;
29686;SDS011;16599;47.078;15.536;2022-10-15T13:55:47;71.78;;;46.08;;
29686;SDS011;16599;47.078;15.536;2022-10-15T13:58:17;73.53;;;46.67;;
29686;SDS011;16599;47.078;15.536;2022-10-15T14:03:32;78.53;;;47.33;;
29686;SDS011;16599;47.078;15.536;2022-10-15T14:06:17;74.72;;;46.47;;
29686;SDS011;16599;47.078;15.536;2022-10-15T14:08:53;70.32;;;45.15;;
29686;SDS011;16599;47.078;15.536;2022-10-15T14:11:21;69.15;;;46.05;;
29686;SDS011;16599;47.078;15.536;2022-10-15T14:13:50;69.72;;;46.05;;
29686;SDS011;16599;47.078;15.536;2022-10-15T14:16:57;71.00;;;46.22;;
29686;SDS011;16599;47.078;15.536;2022-10-15T14:19:17;73.95;;;46.90;;
29686;SDS011;16599;47.078;15.536;2022-10-15T14:21:46;71.38;;;46.28;;
29686;SDS011;16599;47.078;15.536;2022-10-15T14:24:21;73.95;;;46.10;;
29686;SDS011;16599;47.078;15.536;2022-10-15T14:26:53;73.28;;;46.90;;
29686;SDS011;16599;47.078;15.536;2022-10-15T14:29:21;67.20;;;45.45;;
29686;SDS011;16599;47.078;15.536;2022-10-15T14:32:00;67.57;;;46.25;;
29686;SDS011;16599;47.078;15.536;2022-10-15T14:42:42;72.78;;;45.95;;
29686;SDS011;16599;47.078;15.536;2022-10-15T14:48:19;69.07;;;45.92;;
29686;SDS011;16599;47.078;15.536;2022-10-15T14:50:49;78.97;;;48.60;;
29686;SDS011;16599;47.078;15.536;2022-10-15T14:53:17;73.93;;;46.95;;
29686;SDS011;16599;47.078;15.536;2022-10-15T14:56:48;77.90;;;47.80;;
29686;SDS011;16599;47.078;15.536;2022-10-15T14:58:51;74.45;;;46.72;;
29686;SDS011;16599;47.078;15.536;2022-10-15T15:01:22;70.07;;;45.40;;
29686;SDS011;16599;47.078;15.536;2022-10-15T15:03:50;79.35;;;47.17;;
29686;SDS011;16599;47.078;15.536;2022-10-15T15:06:18;72.88;;;46.50;;
29686;SDS011;16599;47.078;15.536;2022-10-15T15:08:45;78.85;;;48.42;;
29686;SDS011;16599;47.078;15.536;2022-10-15T15:11:14;74.80;;;48.85;;
29686;SDS011;16599;47.078;15.536;2022-10-15T15:13:46;74.95;;;47.17;;
29686;SDS011;16599;47.078;15.536;2022-10-15T15:16:15;76.45;;;46.58;;
29686;SDS011;16599;47.078;15.536;2022-10-15T15:18:43;78.30;;;45.97;;
29686;SDS011;16599;47.078;15.536;2022-10-15T15:21:13;81.38;;;46.42;;
29686;SDS011;16599;47.078;15.536;2022-10-15T15:23:45;78.72;;;47.15;;
29686;SDS011;16599;47.078;15.536;2022-10-15T15:26:13;78.05;;;50.50;;
29686;SDS011;16599;47.078;15.536;2022-10-15T15:28:40;84.82;;;51.83;;
29686;SDS011;16599;47.078;15.536;2022-10-15T15:31:09;81.15;;;50.17;;
29686;SDS011;16599;47.078;15.536;2022-10-15T15:33:39;77.00;;;50.53;;
29686;SDS011;16599;47.078;15.536;2022-10-15T15:36:08;73.85;;;50.13;;
29686;SDS011;16599;47.078;15.536;2022-10-15T15:38:41;86.15;;;51.17;;
29686;SDS011;16599;47.078;15.536;2022-10-15T15:41:18;83.22;;;49.90;;
29686;SDS011;16599;47.078;15.536;2022-10-15T15:43:47;72.32;;;47.47;;
29686;SDS011;16599;47.078;15.536;2022-10-15T15:46:14;91.88;;;51.55;;
29686;SDS011;16599;47.078;15.536;2022-10-15T15:48:42;79.97;;;50.42;;
29686;SDS011;16599;47.078;15.536;2022-10-15T15:51:13;81.15;;;48.00;;
29686;SDS011;16599;47.078;15.536;2022-10-15T15:53:42;83.97;;;50.05;;
29686;SDS011;16599;47.078;15.536;2022-10-15T15:56:08;76.68;;;48.63;;
29686;SDS011;16599;47.078;15.536;2022-10-15T15:58:35;90.57;;;51.90;;
29686;SDS011;16599;47.078;15.536;2022-10-15T16:01:02;82.82;;;49.33;;
29686;SDS011;16599;47.078;15.536;2022-10-15T16:03:29;84.40;;;50.25;;
29686;SDS011;16599;47.078;15.536;2022-10-15T16:05:56;83.80;;;53.50;;
29686;SDS011;16599;47.078;15.536;2022-10-15T16:08:23;96.75;;;56.92;;
29686;SDS011;16599;47.078;15.536;2022-10-15T16:10:49;94.32;;;55.30;;
29686;SDS011;16599;47.078;15.536;2022-10-15T16:13:16;104.47;;;54.65;;
29686;SDS011;16599;47.078;15.536;2022-10-15T16:15:43;89.13;;;53.70;;
29686;SDS011;16599;47.078;15.536;2022-10-15T16:18:10;93.47;;;55.22;;
29686;SDS011;16599;47.078;15.536;2022-10-15T16:20:37;90.65;;;54.35;;
29686;SDS011;16599;47.078;15.536;2022-10-15T16:23:11;98.10;;;55.58;;
29686;SDS011;16599;47.078;15.536;2022-10-15T16:25:38;96.00;;;55.88;;
29686;SDS011;16599;47.078;15.536;2022-10-15T16:28:05;85.38;;;51.95;;
29686;SDS011;16599;47.078;15.536;2022-10-15T16:30:31;86.45;;;49.88;;
29686;SDS011;16599;47.078;15.536;2022-10-15T16:32:58;78.90;;;50.17;;
29686;SDS011;16599;47.078;15.536;2022-10-15T16:35:25;86.40;;;52.65;;
29686;SDS011;16599;47.078;15.536;2022-10-15T16:37:52;109.15;;;57.95;;
29686;SDS011;16599;47.078;15.536;2022-10-15T16:40:21;102.53;;;58.35;;
29686;SDS011;16599;47.078;15.536;2022-10-15T16:42:48;109.20;;;59.38;;
29686;SDS011;16599;47.078;15.536;2022-10-15T16:45:15;98.13;;;54.60;;
29686;SDS011;16599;47.078;15.536;2022-10-15T16:47:41;94.47;;;55.63;;
29686;SDS011;16599;47.078;15.536;2022-10-15T16:50:08;92.32;;;54.65;;
29686;SDS011;16599;47.078;15.536;2022-10-15T16:52:35;84.28;;;52.33;;
29686;SDS011;16599;47.078;15.536;2022-10-15T16:55:02;94.88;;;54.78;;
29686;SDS011;16599;47.078;15.536;2022-10-15T16:57:29;105.18;;;59.95;;
29686;SDS011;16599;47.078;15.536;2022-10-15T16:59:56;109.93;;;58.67;;
29686;SDS011;16599;47.078;15.536;2022-10-15T17:02:23;105.07;;;59.53;;
29686;SDS011;16599;47.078;15.536;2022-10-15T17:04:50;94.57;;;55.42;;
29686;SDS011;16599;47.078;15.536;2022-10-15T17:07:17;105.85;;;59.03;;
29686;SDS011;16599;47.078;15.536;2022-10-15T17:09:45;100.70;;;56.67;;
29686;SDS011;16599;47.078;15.536;2022-10-15T17:12:13;110.13;;;59.80;;
29686;SDS011;16599;47.078;15.536;2022-10-15T17:14:39;113.13;;;61.45;;
29686;SDS011;16599;47.078;15.536;2022-10-15T17:17:06;112.20;;;61.65;;
29686;SDS011;16599;47.078;15.536;2022-10-15T17:19:33;102.18;;;55.58;;
29686;SDS011;16599;47.078;15.536;2022-10-15T17:22:00;97.72;;;55.58;;